ENRO

Røros Airport

Røros, Norway
METAR ENRO 250450Z AUTO VRB01KT 9999NDV NCD 07/04 Q1027
Observed Flight Rules
May-25 @ 04:50 UTC (29 minutes ago)
Wind Clouds
Variable at 1 knots
  • Clear skies
Temperatures Readings
Current 7°C / 45°F
Dewpoint 4°C / 39°F
Humidity 81%
Altimeter 30.32" Hg
Pressure 1027 hPa
Elevation 626
METAR ENRO 250450Z AUTO VRB01KT 9999NDV NCD 07/04 Q1027
Observed Flight Rules
May-25 @ 04:50 UTC
(29 minutes ago)
Wind
Variable at 1 knots
Clouds
  • Clear skies
Temperature Dewpoint
7°C / 45°F 4°C / 39°F
Humidity Altimeter Pressure
81% 30.32" Hg 1027 hPa